Terminal Aerodrome Forecast
Issued by NWS

Home | Current Version | Previous Version | Text Only | Print | Product List | Glossary On
Versions: 1 2 3 4 5 6 7 8 9 10 11 12 13 14 15 16 17 18 19 20 21 22 23
000
FTUS41 KCLE 280500 AAA
TAFFDY
TAF AMD
KFDY 280558Z 2806/2906 05005KT P6SM SCT025
      TEMPO 2806/2810 BKN025
     FM281000 05005KT P6SM SCT025
      TEMPO 2810/2813 4SM BR BKN025
     FM281300 05005KT P6SM BKN025
     FM281800 06005KT P6SM FEW030
     FM282300 VRB03KT P6SM SCT250=

USA.gov is the U.S. government's official web portal to all federal, state and local government web resources and services.